sensor_id;sensor_type;location;lat;lon;timestamp;P1;durP1;ratioP1;P2;durP2;ratioP2
49764;SDS011;35657;51.204;-4.130;2023-04-25T00:01:12;5.63;;;3.67;;
49764;SDS011;35657;51.204;-4.130;2023-04-25T00:03:39;6.18;;;3.17;;
49764;SDS011;35657;51.204;-4.130;2023-04-25T00:06:05;6.35;;;3.45;;
49764;SDS011;35657;51.204;-4.130;2023-04-25T00:08:31;8.18;;;3.50;;
49764;SDS011;35657;51.204;-4.130;2023-04-25T00:10:58;4.65;;;3.25;;
49764;SDS011;35657;51.204;-4.130;2023-04-25T00:13:25;5.85;;;3.13;;
49764;SDS011;35657;51.204;-4.130;2023-04-25T00:15:51;8.18;;;3.45;;
49764;SDS011;35657;51.204;-4.130;2023-04-25T00:18:25;4.95;;;3.30;;
49764;SDS011;35657;51.204;-4.130;2023-04-25T00:20:54;3.85;;;2.75;;
49764;SDS011;35657;51.204;-4.130;2023-04-25T00:23:20;3.60;;;2.42;;
49764;SDS011;35657;51.204;-4.130;2023-04-25T00:25:47;6.63;;;2.63;;
49764;SDS011;35657;51.204;-4.130;2023-04-25T00:28:14;5.97;;;3.00;;
49764;SDS011;35657;51.204;-4.130;2023-04-25T00:30:40;4.60;;;2.55;;
49764;SDS011;35657;51.204;-4.130;2023-04-25T00:33:06;5.07;;;2.60;;
49764;SDS011;35657;51.204;-4.130;2023-04-25T00:35:33;5.70;;;2.88;;
49764;SDS011;35657;51.204;-4.130;2023-04-25T00:37:59;4.90;;;2.55;;
49764;SDS011;35657;51.204;-4.130;2023-04-25T00:40:25;5.63;;;2.65;;
49764;SDS011;35657;51.204;-4.130;2023-04-25T00:42:51;5.13;;;2.65;;
49764;SDS011;35657;51.204;-4.130;2023-04-25T00:45:17;7.07;;;2.70;;
49764;SDS011;35657;51.204;-4.130;2023-04-25T00:47:43;6.70;;;3.22;;
49764;SDS011;35657;51.204;-4.130;2023-04-25T00:50:10;9.85;;;2.85;;
49764;SDS011;35657;51.204;-4.130;2023-04-25T00:52:37;5.68;;;2.67;;
49764;SDS011;35657;51.204;-4.130;2023-04-25T00:55:05;7.45;;;2.90;;
49764;SDS011;35657;51.204;-4.130;2023-04-25T00:57:32;6.25;;;3.20;;
49764;SDS011;35657;51.204;-4.130;2023-04-25T00:59:58;4.70;;;2.72;;
49764;SDS011;35657;51.204;-4.130;2023-04-25T01:02:24;5.18;;;3.25;;
49764;SDS011;35657;51.204;-4.130;2023-04-25T01:04:52;5.40;;;3.08;;
49764;SDS011;35657;51.204;-4.130;2023-04-25T01:07:18;7.82;;;3.13;;
49764;SDS011;35657;51.204;-4.130;2023-04-25T01:09:44;7.70;;;3.10;;
49764;SDS011;35657;51.204;-4.130;2023-04-25T01:12:11;5.38;;;3.08;;
49764;SDS011;35657;51.204;-4.130;2023-04-25T01:14:37;5.60;;;2.95;;
49764;SDS011;35657;51.204;-4.130;2023-04-25T01:17:03;4.88;;;3.10;;
49764;SDS011;35657;51.204;-4.130;2023-04-25T01:19:29;6.95;;;2.92;;
49764;SDS011;35657;51.204;-4.130;2023-04-25T01:21:55;7.55;;;3.13;;
49764;SDS011;35657;51.204;-4.130;2023-04-25T01:24:21;8.73;;;3.40;;
49764;SDS011;35657;51.204;-4.130;2023-04-25T01:26:48;7.78;;;3.25;;
49764;SDS011;35657;51.204;-4.130;2023-04-25T01:29:18;6.32;;;3.55;;
49764;SDS011;35657;51.204;-4.130;2023-04-25T01:31:44;13.25;;;5.75;;
49764;SDS011;35657;51.204;-4.130;2023-04-25T01:34:11;7.55;;;3.63;;
49764;SDS011;35657;51.204;-4.130;2023-04-25T01:36:37;10.23;;;4.05;;
49764;SDS011;35657;51.204;-4.130;2023-04-25T01:39:03;9.40;;;3.97;;
49764;SDS011;35657;51.204;-4.130;2023-04-25T01:41:30;6.82;;;3.45;;
49764;SDS011;35657;51.204;-4.130;2023-04-25T01:43:56;6.18;;;3.30;;
49764;SDS011;35657;51.204;-4.130;2023-04-25T01:46:22;6.18;;;3.92;;
49764;SDS011;35657;51.204;-4.130;2023-04-25T01:48:48;10.50;;;4.28;;
49764;SDS011;35657;51.204;-4.130;2023-04-25T01:51:14;9.52;;;4.75;;
49764;SDS011;35657;51.204;-4.130;2023-04-25T01:53:40;8.48;;;4.00;;
49764;SDS011;35657;51.204;-4.130;2023-04-25T01:56:07;8.20;;;4.25;;
49764;SDS011;35657;51.204;-4.130;2023-04-25T01:58:33;12.25;;;4.63;;
49764;SDS011;35657;51.204;-4.130;2023-04-25T02:00:59;8.25;;;4.20;;
49764;SDS011;35657;51.204;-4.130;2023-04-25T02:03:25;9.98;;;4.07;;
49764;SDS011;35657;51.204;-4.130;2023-04-25T02:05:50;11.18;;;4.60;;
49764;SDS011;35657;51.204;-4.130;2023-04-25T02:08:16;7.80;;;4.30;;
49764;SDS011;35657;51.204;-4.130;2023-04-25T02:10:43;6.97;;;4.28;;
49764;SDS011;35657;51.204;-4.130;2023-04-25T02:13:09;9.75;;;4.50;;
49764;SDS011;35657;51.204;-4.130;2023-04-25T02:15:35;9.73;;;5.13;;
49764;SDS011;35657;51.204;-4.130;2023-04-25T02:18:00;10.85;;;5.63;;
49764;SDS011;35657;51.204;-4.130;2023-04-25T02:20:27;13.40;;;5.43;;
49764;SDS011;35657;51.204;-4.130;2023-04-25T02:22:53;9.52;;;4.75;;
49764;SDS011;35657;51.204;-4.130;2023-04-25T02:25:20;8.90;;;5.05;;
49764;SDS011;35657;51.204;-4.130;2023-04-25T02:27:46;11.77;;;5.07;;
49764;SDS011;35657;51.204;-4.130;2023-04-25T02:30:13;12.07;;;5.15;;
49764;SDS011;35657;51.204;-4.130;2023-04-25T02:32:39;9.38;;;4.60;;
49764;SDS011;35657;51.204;-4.130;2023-04-25T02:35:06;16.50;;;5.72;;
49764;SDS011;35657;51.204;-4.130;2023-04-25T02:37:33;13.57;;;5.25;;
49764;SDS011;35657;51.204;-4.130;2023-04-25T02:39:59;9.35;;;5.18;;
49764;SDS011;35657;51.204;-4.130;2023-04-25T02:42:25;11.18;;;5.43;;
49764;SDS011;35657;51.204;-4.130;2023-04-25T02:44:51;12.70;;;4.63;;
49764;SDS011;35657;51.204;-4.130;2023-04-25T02:47:17;12.07;;;4.85;;
49764;SDS011;35657;51.204;-4.130;2023-04-25T02:49:43;9.50;;;5.18;;
49764;SDS011;35657;51.204;-4.130;2023-04-25T02:52:08;13.95;;;5.25;;
49764;SDS011;35657;51.204;-4.130;2023-04-25T02:54:34;9.18;;;5.72;;
49764;SDS011;35657;51.204;-4.130;2023-04-25T02:57:00;11.23;;;4.55;;
49764;SDS011;35657;51.204;-4.130;2023-04-25T02:59:27;9.68;;;4.88;;
49764;SDS011;35657;51.204;-4.130;2023-04-25T03:01:53;9.90;;;4.90;;
49764;SDS011;35657;51.204;-4.130;2023-04-25T03:04:18;16.75;;;5.32;;
49764;SDS011;35657;51.204;-4.130;2023-04-25T03:06:45;10.00;;;4.55;;
49764;SDS011;35657;51.204;-4.130;2023-04-25T03:09:11;12.27;;;4.43;;
49764;SDS011;35657;51.204;-4.130;2023-04-25T03:11:38;11.73;;;5.40;;
49764;SDS011;35657;51.204;-4.130;2023-04-25T03:14:04;8.55;;;4.65;;
49764;SDS011;35657;51.204;-4.130;2023-04-25T03:16:30;11.25;;;4.88;;
49764;SDS011;35657;51.204;-4.130;2023-04-25T03:18:56;10.55;;;4.15;;
49764;SDS011;35657;51.204;-4.130;2023-04-25T03:21:22;11.05;;;4.30;;
49764;SDS011;35657;51.204;-4.130;2023-04-25T03:23:48;9.80;;;5.25;;
49764;SDS011;35657;51.204;-4.130;2023-04-25T03:26:13;15.55;;;5.00;;
49764;SDS011;35657;51.204;-4.130;2023-04-25T03:28:39;10.73;;;4.50;;
49764;SDS011;35657;51.204;-4.130;2023-04-25T03:31:05;8.18;;;4.63;;
49764;SDS011;35657;51.204;-4.130;2023-04-25T03:33:31;10.45;;;4.75;;
49764;SDS011;35657;51.204;-4.130;2023-04-25T03:35:57;11.82;;;4.13;;
49764;SDS011;35657;51.204;-4.130;2023-04-25T03:38:22;11.98;;;4.22;;
49764;SDS011;35657;51.204;-4.130;2023-04-25T03:40:49;10.05;;;3.90;;
49764;SDS011;35657;51.204;-4.130;2023-04-25T03:43:16;10.00;;;4.93;;
49764;SDS011;35657;51.204;-4.130;2023-04-25T03:45:42;7.25;;;4.22;;
49764;SDS011;35657;51.204;-4.130;2023-04-25T03:48:08;12.00;;;4.53;;
49764;SDS011;35657;51.204;-4.130;2023-04-25T03:50:34;12.20;;;4.47;;
49764;SDS011;35657;51.204;-4.130;2023-04-25T03:53:00;8.65;;;3.95;;
49764;SDS011;35657;51.204;-4.130;2023-04-25T03:55:25;5.72;;;3.42;;
49764;SDS011;35657;51.204;-4.130;2023-04-25T03:57:51;12.55;;;4.20;;
49764;SDS011;35657;51.204;-4.130;2023-04-25T04:00:17;19.13;;;4.80;;
49764;SDS011;35657;51.204;-4.130;2023-04-25T04:02:42;8.32;;;4.20;;
49764;SDS011;35657;51.204;-4.130;2023-04-25T04:05:08;10.88;;;4.22;;
49764;SDS011;35657;51.204;-4.130;2023-04-25T04:07:34;9.00;;;3.85;;
49764;SDS011;35657;51.204;-4.130;2023-04-25T04:10:05;13.43;;;3.90;;
49764;SDS011;35657;51.204;-4.130;2023-04-25T04:12:31;9.25;;;3.60;;
49764;SDS011;35657;51.204;-4.130;2023-04-25T04:14:57;7.00;;;3.58;;
49764;SDS011;35657;51.204;-4.130;2023-04-25T04:17:23;15.77;;;4.40;;
49764;SDS011;35657;51.204;-4.130;2023-04-25T04:19:48;11.10;;;4.72;;
49764;SDS011;35657;51.204;-4.130;2023-04-25T04:22:14;7.22;;;4.25;;
49764;SDS011;35657;51.204;-4.130;2023-04-25T04:24:40;13.43;;;4.80;;
49764;SDS011;35657;51.204;-4.130;2023-04-25T04:27:08;10.35;;;3.95;;
49764;SDS011;35657;51.204;-4.130;2023-04-25T04:29:35;12.20;;;3.50;;
49764;SDS011;35657;51.204;-4.130;2023-04-25T04:32:01;13.60;;;4.72;;
49764;SDS011;35657;51.204;-4.130;2023-04-25T04:34:28;8.80;;;3.63;;
49764;SDS011;35657;51.204;-4.130;2023-04-25T04:36:54;6.82;;;3.78;;
49764;SDS011;35657;51.204;-4.130;2023-04-25T04:39:20;8.55;;;3.83;;
49764;SDS011;35657;51.204;-4.130;2023-04-25T04:41:46;9.45;;;3.85;;
49764;SDS011;35657;51.204;-4.130;2023-04-25T04:44:12;8.98;;;3.75;;
49764;SDS011;35657;51.204;-4.130;2023-04-25T04:46:39;10.45;;;4.05;;
49764;SDS011;35657;51.204;-4.130;2023-04-25T04:49:05;11.30;;;4.07;;
49764;SDS011;35657;51.204;-4.130;2023-04-25T04:51:31;8.93;;;4.22;;
49764;SDS011;35657;51.204;-4.130;2023-04-25T04:53:58;11.70;;;5.00;;
49764;SDS011;35657;51.204;-4.130;2023-04-25T04:56:27;8.65;;;4.35;;
49764;SDS011;35657;51.204;-4.130;2023-04-25T04:58:58;10.23;;;4.60;;
49764;SDS011;35657;51.204;-4.130;2023-04-25T05:01:25;16.63;;;4.13;;
49764;SDS011;35657;51.204;-4.130;2023-04-25T05:03:51;8.50;;;3.83;;
49764;SDS011;35657;51.204;-4.130;2023-04-25T05:06:20;7.70;;;3.60;;
49764;SDS011;35657;51.204;-4.130;2023-04-25T05:08:45;10.23;;;3.90;;
49764;SDS011;35657;51.204;-4.130;2023-04-25T05:11:11;7.80;;;4.25;;
49764;SDS011;35657;51.204;-4.130;2023-04-25T05:13:37;14.18;;;5.85;;
49764;SDS011;35657;51.204;-4.130;2023-04-25T05:16:02;11.88;;;3.95;;
49764;SDS011;35657;51.204;-4.130;2023-04-25T05:18:28;9.35;;;4.43;;
49764;SDS011;35657;51.204;-4.130;2023-04-25T05:20:55;11.90;;;5.07;;
49764;SDS011;35657;51.204;-4.130;2023-04-25T05:23:21;12.35;;;4.05;;
49764;SDS011;35657;51.204;-4.130;2023-04-25T05:25:47;11.32;;;4.43;;
49764;SDS011;35657;51.204;-4.130;2023-04-25T05:28:13;10.82;;;4.00;;
49764;SDS011;35657;51.204;-4.130;2023-04-25T05:30:39;14.68;;;3.78;;
49764;SDS011;35657;51.204;-4.130;2023-04-25T05:33:05;9.82;;;3.58;;
49764;SDS011;35657;51.204;-4.130;2023-04-25T05:35:30;16.63;;;4.90;;
49764;SDS011;35657;51.204;-4.130;2023-04-25T05:37:56;7.45;;;3.90;;
49764;SDS011;35657;51.204;-4.130;2023-04-25T05:40:22;9.55;;;4.63;;
49764;SDS011;35657;51.204;-4.130;2023-04-25T05:42:47;10.07;;;3.50;;
49764;SDS011;35657;51.204;-4.130;2023-04-25T05:45:13;9.90;;;4.50;;
49764;SDS011;35657;51.204;-4.130;2023-04-25T05:47:39;14.85;;;4.78;;
49764;SDS011;35657;51.204;-4.130;2023-04-25T05:50:05;10.30;;;4.55;;
49764;SDS011;35657;51.204;-4.130;2023-04-25T05:52:31;11.15;;;4.20;;
49764;SDS011;35657;51.204;-4.130;2023-04-25T05:54:57;16.00;;;4.57;;
49764;SDS011;35657;51.204;-4.130;2023-04-25T05:57:23;10.80;;;4.65;;
49764;SDS011;35657;51.204;-4.130;2023-04-25T05:59:52;12.90;;;5.07;;
49764;SDS011;35657;51.204;-4.130;2023-04-25T06:02:19;15.85;;;5.80;;
49764;SDS011;35657;51.204;-4.130;2023-04-25T06:04:49;11.82;;;4.60;;
49764;SDS011;35657;51.204;-4.130;2023-04-25T06:07:15;7.82;;;4.25;;
49764;SDS011;35657;51.204;-4.130;2023-04-25T06:09:41;10.55;;;3.78;;
49764;SDS011;35657;51.204;-4.130;2023-04-25T06:12:08;13.73;;;5.05;;
49764;SDS011;35657;51.204;-4.130;2023-04-25T06:14:35;16.45;;;4.30;;
49764;SDS011;35657;51.204;-4.130;2023-04-25T06:17:00;9.02;;;4.50;;
49764;SDS011;35657;51.204;-4.130;2023-04-25T06:19:34;10.02;;;4.10;;
49764;SDS011;35657;51.204;-4.130;2023-04-25T06:22:01;12.05;;;4.32;;
49764;SDS011;35657;51.204;-4.130;2023-04-25T06:24:27;11.35;;;3.92;;
49764;SDS011;35657;51.204;-4.130;2023-04-25T06:26:53;7.28;;;3.45;;
49764;SDS011;35657;51.204;-4.130;2023-04-25T06:29:19;14.60;;;3.83;;
49764;SDS011;35657;51.204;-4.130;2023-04-25T06:31:45;9.02;;;4.03;;
49764;SDS011;35657;51.204;-4.130;2023-04-25T06:34:12;7.18;;;2.78;;
49764;SDS011;35657;51.204;-4.130;2023-04-25T06:36:38;6.75;;;3.35;;
49764;SDS011;35657;51.204;-4.130;2023-04-25T06:39:06;12.07;;;3.67;;
49764;SDS011;35657;51.204;-4.130;2023-04-25T06:41:32;9.85;;;2.75;;
49764;SDS011;35657;51.204;-4.130;2023-04-25T06:43:57;14.13;;;4.20;;
49764;SDS011;35657;51.204;-4.130;2023-04-25T06:46:23;8.60;;;3.75;;
49764;SDS011;35657;51.204;-4.130;2023-04-25T06:48:49;15.05;;;3.35;;
49764;SDS011;35657;51.204;-4.130;2023-04-25T06:51:15;10.38;;;4.00;;
49764;SDS011;35657;51.204;-4.130;2023-04-25T06:53:40;13.30;;;4.05;;
49764;SDS011;35657;51.204;-4.130;2023-04-25T06:56:06;11.70;;;4.30;;
49764;SDS011;35657;51.204;-4.130;2023-04-25T06:58:32;14.20;;;3.90;;
49764;SDS011;35657;51.204;-4.130;2023-04-25T07:00:58;12.52;;;4.07;;
49764;SDS011;35657;51.204;-4.130;2023-04-25T07:03:23;15.40;;;4.10;;
49764;SDS011;35657;51.204;-4.130;2023-04-25T07:05:49;11.70;;;4.60;;
49764;SDS011;35657;51.204;-4.130;2023-04-25T07:08:15;16.55;;;4.82;;
49764;SDS011;35657;51.204;-4.130;2023-04-25T07:10:41;10.63;;;3.30;;
49764;SDS011;35657;51.204;-4.130;2023-04-25T07:13:07;9.23;;;3.90;;
49764;SDS011;35657;51.204;-4.130;2023-04-25T07:15:33;15.05;;;4.40;;
49764;SDS011;35657;51.204;-4.130;2023-04-25T07:17:59;11.23;;;5.03;;
49764;SDS011;35657;51.204;-4.130;2023-04-25T07:20:25;11.68;;;4.47;;
49764;SDS011;35657;51.204;-4.130;2023-04-25T07:22:52;6.88;;;3.10;;
49764;SDS011;35657;51.204;-4.130;2023-04-25T07:25:18;5.78;;;2.08;;
49764;SDS011;35657;51.204;-4.130;2023-04-25T07:27:44;9.85;;;4.55;;
49764;SDS011;35657;51.204;-4.130;2023-04-25T07:30:10;9.48;;;2.97;;
49764;SDS011;35657;51.204;-4.130;2023-04-25T07:32:37;10.45;;;3.42;;
49764;SDS011;35657;51.204;-4.130;2023-04-25T07:35:03;5.15;;;2.63;;
49764;SDS011;35657;51.204;-4.130;2023-04-25T07:37:29;10.90;;;2.88;;
49764;SDS011;35657;51.204;-4.130;2023-04-25T07:39:55;10.68;;;3.88;;
49764;SDS011;35657;51.204;-4.130;2023-04-25T07:42:20;18.73;;;4.97;;
49764;SDS011;35657;51.204;-4.130;2023-04-25T07:44:46;14.02;;;4.03;;
49764;SDS011;35657;51.204;-4.130;2023-04-25T07:47:12;6.38;;;2.65;;
49764;SDS011;35657;51.204;-4.130;2023-04-25T07:49:38;12.15;;;3.22;;
49764;SDS011;35657;51.204;-4.130;2023-04-25T07:52:05;6.95;;;3.63;;
49764;SDS011;35657;51.204;-4.130;2023-04-25T07:54:31;12.90;;;3.28;;
49764;SDS011;35657;51.204;-4.130;2023-04-25T07:56:57;6.63;;;2.53;;
49764;SDS011;35657;51.204;-4.130;2023-04-25T07:59:23;12.05;;;3.58;;
49764;SDS011;35657;51.204;-4.130;2023-04-25T08:01:49;5.38;;;2.50;;
49764;SDS011;35657;51.204;-4.130;2023-04-25T08:04:15;9.73;;;2.70;;
49764;SDS011;35657;51.204;-4.130;2023-04-25T08:06:42;8.80;;;2.45;;
49764;SDS011;35657;51.204;-4.130;2023-04-25T08:09:08;9.27;;;2.53;;
49764;SDS011;35657;51.204;-4.130;2023-04-25T08:11:35;5.25;;;2.67;;
49764;SDS011;35657;51.204;-4.130;2023-04-25T08:14:01;5.07;;;2.65;;
49764;SDS011;35657;51.204;-4.130;2023-04-25T08:16:27;8.93;;;3.72;;
49764;SDS011;35657;51.204;-4.130;2023-04-25T08:18:52;10.85;;;3.15;;
49764;SDS011;35657;51.204;-4.130;2023-04-25T08:21:18;9.40;;;2.78;;
49764;SDS011;35657;51.204;-4.130;2023-04-25T08:23:44;9.05;;;3.10;;
49764;SDS011;35657;51.204;-4.130;2023-04-25T08:26:10;8.77;;;2.72;;
49764;SDS011;35657;51.204;-4.130;2023-04-25T08:28:36;8.60;;;3.30;;
49764;SDS011;35657;51.204;-4.130;2023-04-25T08:31:03;8.02;;;2.35;;
49764;SDS011;35657;51.204;-4.130;2023-04-25T08:33:29;12.50;;;3.03;;
49764;SDS011;35657;51.204;-4.130;2023-04-25T08:35:55;5.18;;;2.13;;
49764;SDS011;35657;51.204;-4.130;2023-04-25T08:38:21;9.45;;;3.22;;
49764;SDS011;35657;51.204;-4.130;2023-04-25T08:40:48;6.03;;;2.10;;
49764;SDS011;35657;51.204;-4.130;2023-04-25T08:43:18;7.43;;;2.45;;
49764;SDS011;35657;51.204;-4.130;2023-04-25T08:45:45;5.47;;;1.85;;
49764;SDS011;35657;51.204;-4.130;2023-04-25T08:48:12;4.50;;;2.05;;
49764;SDS011;35657;51.204;-4.130;2023-04-25T08:50:52;7.00;;;2.17;;
49764;SDS011;35657;51.204;-4.130;2023-04-25T08:53:28;5.78;;;2.08;;
49764;SDS011;35657;51.204;-4.130;2023-04-25T08:55:58;6.90;;;1.85;;
49764;SDS011;35657;51.204;-4.130;2023-04-25T08:58:27;5.47;;;2.78;;
49764;SDS011;35657;51.204;-4.130;2023-04-25T09:00:53;6.57;;;1.85;;
49764;SDS011;35657;51.204;-4.130;2023-04-25T09:03:19;5.38;;;2.72;;
49764;SDS011;35657;51.204;-4.130;2023-04-25T09:05:45;4.10;;;1.98;;
49764;SDS011;35657;51.204;-4.130;2023-04-25T09:08:10;5.82;;;1.90;;
49764;SDS011;35657;51.204;-4.130;2023-04-25T09:10:36;8.48;;;2.50;;
49764;SDS011;35657;51.204;-4.130;2023-04-25T09:15:50;6.15;;;1.50;;
49764;SDS011;35657;51.204;-4.130;2023-04-25T09:20:53;6.35;;;1.98;;
49764;SDS011;35657;51.204;-4.130;2023-04-25T09:23:20;2.30;;;1.70;;
49764;SDS011;35657;51.204;-4.130;2023-04-25T09:25:51;4.10;;;1.23;;
49764;SDS011;35657;51.204;-4.130;2023-04-25T09:28:25;7.53;;;1.67;;
49764;SDS011;35657;51.204;-4.130;2023-04-25T09:30:56;1.83;;;1.13;;
49764;SDS011;35657;51.204;-4.130;2023-04-25T09:33:29;7.43;;;1.77;;
49764;SDS011;35657;51.204;-4.130;2023-04-25T09:36:03;4.55;;;1.65;;
49764;SDS011;35657;51.204;-4.130;2023-04-25T09:38:42;5.97;;;1.55;;
49764;SDS011;35657;51.204;-4.130;2023-04-25T09:41:09;4.82;;;1.42;;
49764;SDS011;35657;51.204;-4.130;2023-04-25T09:43:36;5.32;;;1.58;;
49764;SDS011;35657;51.204;-4.130;2023-04-25T09:46:04;5.80;;;1.55;;
49764;SDS011;35657;51.204;-4.130;2023-04-25T09:48:36;9.82;;;2.40;;
49764;SDS011;35657;51.204;-4.130;2023-04-25T09:53:34;8.68;;;2.67;;
49764;SDS011;35657;51.204;-4.130;2023-04-25T09:56:03;8.02;;;2.30;;
49764;SDS011;35657;51.204;-4.130;2023-04-25T09:58:33;5.90;;;1.88;;
49764;SDS011;35657;51.204;-4.130;2023-04-25T10:01:04;10.25;;;2.55;;
49764;SDS011;35657;51.204;-4.130;2023-04-25T10:03:31;7.13;;;2.63;;
49764;SDS011;35657;51.204;-4.130;2023-04-25T10:06:00;6.15;;;1.80;;
49764;SDS011;35657;51.204;-4.130;2023-04-25T10:08:32;3.95;;;1.65;;
49764;SDS011;35657;51.204;-4.130;2023-04-25T10:11:06;2.50;;;1.45;;
49764;SDS011;35657;51.204;-4.130;2023-04-25T10:13:33;4.30;;;1.40;;
49764;SDS011;35657;51.204;-4.130;2023-04-25T10:16:04;4.60;;;1.55;;
49764;SDS011;35657;51.204;-4.130;2023-04-25T10:18:30;3.85;;;1.35;;
49764;SDS011;35657;51.204;-4.130;2023-04-25T10:21:00;3.97;;;1.42;;
49764;SDS011;35657;51.204;-4.130;2023-04-25T10:23:29;7.55;;;2.65;;
49764;SDS011;35657;51.204;-4.130;2023-04-25T10:25:56;6.90;;;2.00;;
49764;SDS011;35657;51.204;-4.130;2023-04-25T10:28:22;7.30;;;2.40;;
49764;SDS011;35657;51.204;-4.130;2023-04-25T10:33:39;8.05;;;2.30;;
49764;SDS011;35657;51.204;-4.130;2023-04-25T10:36:14;5.38;;;2.30;;
49764;SDS011;35657;51.204;-4.130;2023-04-25T10:38:43;6.07;;;2.60;;
49764;SDS011;35657;51.204;-4.130;2023-04-25T10:41:09;5.30;;;2.28;;
49764;SDS011;35657;51.204;-4.130;2023-04-25T10:43:40;6.85;;;2.38;;
49764;SDS011;35657;51.204;-4.130;2023-04-25T10:48:53;9.35;;;2.15;;
49764;SDS011;35657;51.204;-4.130;2023-04-25T10:56:21;12.82;;;2.22;;
49764;SDS011;35657;51.204;-4.130;2023-04-25T10:58:47;7.32;;;2.35;;
49764;SDS011;35657;51.204;-4.130;2023-04-25T11:01:15;5.93;;;2.65;;
49764;SDS011;35657;51.204;-4.130;2023-04-25T11:03:45;6.07;;;1.63;;
49764;SDS011;35657;51.204;-4.130;2023-04-25T11:06:20;9.07;;;2.30;;
49764;SDS011;35657;51.204;-4.130;2023-04-25T11:08:52;10.93;;;2.72;;
49764;SDS011;35657;51.204;-4.130;2023-04-25T11:11:18;7.78;;;2.20;;
49764;SDS011;35657;51.204;-4.130;2023-04-25T11:13:47;5.85;;;1.80;;
49764;SDS011;35657;51.204;-4.130;2023-04-25T11:16:13;4.65;;;1.90;;
49764;SDS011;35657;51.204;-4.130;2023-04-25T11:18:43;7.70;;;2.08;;
49764;SDS011;35657;51.204;-4.130;2023-04-25T11:21:09;6.22;;;1.77;;
49764;SDS011;35657;51.204;-4.130;2023-04-25T11:23:35;16.70;;;2.80;;
49764;SDS011;35657;51.204;-4.130;2023-04-25T11:26:02;6.03;;;1.83;;
49764;SDS011;35657;51.204;-4.130;2023-04-25T11:28:28;6.20;;;2.42;;
49764;SDS011;35657;51.204;-4.130;2023-04-25T11:30:54;6.00;;;2.20;;
49764;SDS011;35657;51.204;-4.130;2023-04-25T11:33:24;6.00;;;2.40;;
49764;SDS011;35657;51.204;-4.130;2023-04-25T11:35:52;4.40;;;1.63;;
49764;SDS011;35657;51.204;-4.130;2023-04-25T11:38:20;4.50;;;2.20;;
49764;SDS011;35657;51.204;-4.130;2023-04-25T11:40:49;6.35;;;2.30;;
49764;SDS011;35657;51.204;-4.130;2023-04-25T11:43:17;6.93;;;1.90;;
49764;SDS011;35657;51.204;-4.130;2023-04-25T11:45:48;7.72;;;2.05;;
49764;SDS011;35657;51.204;-4.130;2023-04-25T11:48:14;6.68;;;2.15;;
49764;SDS011;35657;51.204;-4.130;2023-04-25T11:50:39;8.68;;;1.98;;
49764;SDS011;35657;51.204;-4.130;2023-04-25T11:53:06;5.40;;;2.25;;
49764;SDS011;35657;51.204;-4.130;2023-04-25T11:55:33;4.20;;;1.83;;
49764;SDS011;35657;51.204;-4.130;2023-04-25T11:58:00;5.88;;;2.00;;
49764;SDS011;35657;51.204;-4.130;2023-04-25T12:00:26;4.55;;;1.70;;
49764;SDS011;35657;51.204;-4.130;2023-04-25T12:02:53;5.88;;;2.28;;
49764;SDS011;35657;51.204;-4.130;2023-04-25T12:05:19;5.20;;;2.85;;
49764;SDS011;35657;51.204;-4.130;2023-04-25T12:07:48;5.63;;;2.45;;
49764;SDS011;35657;51.204;-4.130;2023-04-25T12:10:14;8.35;;;2.70;;
49764;SDS011;35657;51.204;-4.130;2023-04-25T12:12:42;7.75;;;2.80;;
49764;SDS011;35657;51.204;-4.130;2023-04-25T12:17:47;5.80;;;2.78;;
49764;SDS011;35657;51.204;-4.130;2023-04-25T12:20:18;7.65;;;2.33;;
49764;SDS011;35657;51.204;-4.130;2023-04-25T12:22:45;4.35;;;1.63;;
49764;SDS011;35657;51.204;-4.130;2023-04-25T12:25:34;5.97;;;1.98;;
49764;SDS011;35657;51.204;-4.130;2023-04-25T12:30:55;5.32;;;1.88;;
49764;SDS011;35657;51.204;-4.130;2023-04-25T12:33:34;6.18;;;2.50;;
49764;SDS011;35657;51.204;-4.130;2023-04-25T12:36:01;8.52;;;3.22;;
49764;SDS011;35657;51.204;-4.130;2023-04-25T12:38:36;8.10;;;2.40;;
49764;SDS011;35657;51.204;-4.130;2023-04-25T12:41:03;4.65;;;1.98;;
49764;SDS011;35657;51.204;-4.130;2023-04-25T12:43:29;5.85;;;1.90;;
49764;SDS011;35657;51.204;-4.130;2023-04-25T12:45:55;6.80;;;3.13;;
49764;SDS011;35657;51.204;-4.130;2023-04-25T12:48:22;8.65;;;2.45;;
49764;SDS011;35657;51.204;-4.130;2023-04-25T12:50:48;7.38;;;2.22;;
49764;SDS011;35657;51.204;-4.130;2023-04-25T12:53:16;6.05;;;2.75;;
49764;SDS011;35657;51.204;-4.130;2023-04-25T12:55:41;6.75;;;2.38;;
49764;SDS011;35657;51.204;-4.130;2023-04-25T12:58:08;8.32;;;2.55;;
49764;SDS011;35657;51.204;-4.130;2023-04-25T13:00:34;3.75;;;2.15;;
49764;SDS011;35657;51.204;-4.130;2023-04-25T13:02:59;6.88;;;2.95;;
49764;SDS011;35657;51.204;-4.130;2023-04-25T13:05:25;7.97;;;2.47;;
49764;SDS011;35657;51.204;-4.130;2023-04-25T13:07:51;4.07;;;2.10;;
49764;SDS011;35657;51.204;-4.130;2023-04-25T13:10:17;5.88;;;2.28;;
49764;SDS011;35657;51.204;-4.130;2023-04-25T13:12:43;5.50;;;2.30;;
49764;SDS011;35657;51.204;-4.130;2023-04-25T13:15:09;6.03;;;2.33;;
49764;SDS011;35657;51.204;-4.130;2023-04-25T13:17:36;6.07;;;2.97;;
49764;SDS011;35657;51.204;-4.130;2023-04-25T13:20:03;10.43;;;2.47;;
49764;SDS011;35657;51.204;-4.130;2023-04-25T13:22:33;4.22;;;2.15;;
49764;SDS011;35657;51.204;-4.130;2023-04-25T13:25:01;9.63;;;3.13;;
49764;SDS011;35657;51.204;-4.130;2023-04-25T13:27:28;8.45;;;2.78;;
49764;SDS011;35657;51.204;-4.130;2023-04-25T13:29:53;5.13;;;2.28;;
49764;SDS011;35657;51.204;-4.130;2023-04-25T13:32:19;9.50;;;2.50;;
49764;SDS011;35657;51.204;-4.130;2023-04-25T13:34:47;5.93;;;2.22;;
49764;SDS011;35657;51.204;-4.130;2023-04-25T13:37:12;7.32;;;2.38;;
49764;SDS011;35657;51.204;-4.130;2023-04-25T13:39:39;5.35;;;2.65;;
49764;SDS011;35657;51.204;-4.130;2023-04-25T13:42:04;4.50;;;2.28;;
49764;SDS011;35657;51.204;-4.130;2023-04-25T13:44:30;6.28;;;2.45;;
49764;SDS011;35657;51.204;-4.130;2023-04-25T13:46:55;8.35;;;2.72;;
49764;SDS011;35657;51.204;-4.130;2023-04-25T13:49:21;6.13;;;2.72;;
49764;SDS011;35657;51.204;-4.130;2023-04-25T13:51:47;8.27;;;2.95;;
49764;SDS011;35657;51.204;-4.130;2023-04-25T13:54:13;5.18;;;2.47;;
49764;SDS011;35657;51.204;-4.130;2023-04-25T13:56:39;5.93;;;2.60;;
49764;SDS011;35657;51.204;-4.130;2023-04-25T13:59:07;5.25;;;2.15;;
49764;SDS011;35657;51.204;-4.130;2023-04-25T14:01:32;4.88;;;2.67;;
49764;SDS011;35657;51.204;-4.130;2023-04-25T14:04:00;6.07;;;2.75;;
49764;SDS011;35657;51.204;-4.130;2023-04-25T14:06:26;6.45;;;1.95;;
49764;SDS011;35657;51.204;-4.130;2023-04-25T14:08:53;8.50;;;2.10;;
49764;SDS011;35657;51.204;-4.130;2023-04-25T14:11:19;8.45;;;2.58;;
49764;SDS011;35657;51.204;-4.130;2023-04-25T14:13:45;9.23;;;2.42;;
49764;SDS011;35657;51.204;-4.130;2023-04-25T14:16:11;6.22;;;2.47;;
49764;SDS011;35657;51.204;-4.130;2023-04-25T14:18:37;4.32;;;2.40;;
49764;SDS011;35657;51.204;-4.130;2023-04-25T14:21:02;3.83;;;2.28;;
49764;SDS011;35657;51.204;-4.130;2023-04-25T14:23:28;3.42;;;2.28;;
49764;SDS011;35657;51.204;-4.130;2023-04-25T14:25:54;6.47;;;2.92;;
49764;SDS011;35657;51.204;-4.130;2023-04-25T14:28:19;8.80;;;2.50;;
49764;SDS011;35657;51.204;-4.130;2023-04-25T14:30:45;9.07;;;2.40;;
49764;SDS011;35657;51.204;-4.130;2023-04-25T14:33:11;5.60;;;1.90;;
49764;SDS011;35657;51.204;-4.130;2023-04-25T14:35:38;7.30;;;2.50;;
49764;SDS011;35657;51.204;-4.130;2023-04-25T14:38:04;10.00;;;2.80;;
49764;SDS011;35657;51.204;-4.130;2023-04-25T14:40:30;7.95;;;2.60;;
49764;SDS011;35657;51.204;-4.130;2023-04-25T14:42:56;4.80;;;1.92;;
49764;SDS011;35657;51.204;-4.130;2023-04-25T14:45:21;4.82;;;2.53;;
49764;SDS011;35657;51.204;-4.130;2023-04-25T14:47:47;6.47;;;2.03;;
49764;SDS011;35657;51.204;-4.130;2023-04-25T14:50:13;8.35;;;2.78;;
49764;SDS011;35657;51.204;-4.130;2023-04-25T14:52:39;5.65;;;2.53;;